»·PEaware :: HAL16 PHNL-KSAN

HAL16 :: PHNL-KSAN

FLIGHT INFORMATION

Flight Status: Arrived
Operator:
Hawaiian Airlines
More flights by this operator :: More flights under this callsign
Pilot: Justin U. (116)
Aircraft: BOEING 767-300
(B763)
More flights by this aircraft type
Origin: PHNL Honolulu Intl
United States
Destination: KSAN San Diego Intl-Lindbergh
United States
More flights between these airports :: More routes between these airports
Route: MKK4 EBBER R577 ELOYI R577 ELKEY SXC HUBRD1
File this flight plan on PilotEdge
Remarks: SEL / KMCS / V /
Altitude:
(Current/Filed)
37,000ft
Speed:
(Current/Filed)
461kts
Departed: 07-Apr-12 07:05 PM
Arrived: 07-Apr-12 09:59 PM
Distance/Time
Traveled:
2266nm/2:53
Distance/Time
To Go:
Arrived

Flight Plot

Page will automatically refresh every two minutes.


Map Options




Map Legend


Flown Route
Filed Route
Departure Airport
Arrival Airport
Navaid (VOR, NDB)
Fix

Horizontal Profiles

Position Reports

Time Latitude Longitude Heading Altitude Ground
Speed
07-Apr-12 19:03 26.453784 -142.669834 60 37154ft 494kts
07-Apr-12 19:04 26.510731 -142.530049 59 37154ft 493kts
07-Apr-12 19:05 26.566409 -142.389360 60 37154ft 494kts
07-Apr-12 19:06 26.621755 -142.248961 60 37154ft 495kts
07-Apr-12 19:07 26.677694 -142.107409 59 37154ft 495kts
07-Apr-12 19:08 26.734361 -141.967369 60 37154ft 495kts
07-Apr-12 19:09 26.789067 -141.825581 60 37152ft 495kts
07-Apr-12 19:10 26.844373 -141.684038 60 37152ft 495kts
07-Apr-12 19:11 26.900528 -141.543078 60 37171ft 494kts
07-Apr-12 19:12 26.955069 -141.401238 60 37180ft 494kts
07-Apr-12 19:13 27.010446 -141.259817 61 37182ft 495kts
07-Apr-12 19:14 27.064378 -141.117402 61 37184ft 495kts
07-Apr-12 19:15 27.119311 -140.976060 60 37184ft 494kts
07-Apr-12 19:16 27.174199 -140.833998 61 37182ft 495kts
07-Apr-12 19:17 27.227726 -140.690949 61 37183ft 495kts
07-Apr-12 19:18 27.282391 -140.548502 60 37184ft 495kts
07-Apr-12 19:19 27.337345 -140.406163 61 37184ft 496kts
07-Apr-12 19:20 27.390336 -140.262522 61 37184ft 496kts
07-Apr-12 19:21 27.444275 -140.119296 61 37185ft 495kts
07-Apr-12 19:22 27.499054 -139.976830 61 37198ft 494kts
07-Apr-12 19:23 27.551560 -139.834155 63 37200ft 491kts
07-Apr-12 19:24 27.604812 -139.692682 62 37201ft 490kts
07-Apr-12 19:25 27.657308 -139.550131 63 37202ft 491kts
07-Apr-12 19:26 27.709693 -139.407431 62 37202ft 491kts
07-Apr-12 19:27 27.763289 -139.265169 63 37204ft 492kts
07-Apr-12 19:28 27.814660 -139.121610 63 37204ft 492kts
07-Apr-12 19:29 27.867133 -138.978542 63 37203ft 492kts
07-Apr-12 19:30 27.919513 -138.835235 64 37204ft 492kts
07-Apr-12 19:31 27.970632 -138.691706 63 37203ft 492kts
07-Apr-12 19:32 28.023092 -138.548137 62 37204ft 495kts
07-Apr-12 19:33 28.076625 -138.402397 62 37204ft 503kts
07-Apr-12 19:34 28.128977 -138.254833 63 37204ft 504kts
07-Apr-12 19:35 28.182207 -138.107627 63 37203ft 504kts
07-Apr-12 19:36 28.233850 -137.959603 63 37204ft 504kts
07-Apr-12 19:37 28.286787 -137.812192 62 37204ft 503kts
07-Apr-12 19:38 28.338383 -137.663986 64 37201ft 504kts
07-Apr-12 19:39 28.390284 -137.516520 63 37205ft 503kts
07-Apr-12 19:40 28.442315 -137.368561 64 37208ft 504kts
07-Apr-12 19:41 28.493372 -137.220020 63 37210ft 503kts
07-Apr-12 19:42 28.545622 -137.072041 63 37211ft 503kts
07-Apr-12 19:43 28.596451 -136.923449 66 37213ft 502kts
07-Apr-12 19:44 28.646984 -136.773738 67 37213ft 507kts
07-Apr-12 19:45 28.698448 -136.624035 66 37213ft 506kts
07-Apr-12 19:48 28.843553 -136.199068 66 37200ft 506kts
07-Apr-12 19:49 28.894672 -136.049126 67 37194ft 506kts
07-Apr-12 19:50 28.944329 -135.898410 67 37192ft 506kts
07-Apr-12 19:51 28.995282 -135.748212 66 37194ft 506kts
07-Apr-12 19:52 29.045211 -135.597514 67 37194ft 506kts
07-Apr-12 19:53 29.094821 -135.446628 67 37196ft 506kts
07-Apr-12 19:54 29.145338 -135.296691 67 37203ft 506kts
07-Apr-12 19:55 29.194255 -135.145416 67 37210ft 506kts
07-Apr-12 19:56 29.244075 -134.994395 67 37211ft 506kts
07-Apr-12 19:57 29.293055 -134.842843 68 37212ft 506kts
07-Apr-12 19:58 29.341858 -134.691080 67 37214ft 506kts
07-Apr-12 19:59 29.391763 -134.539648 68 37201ft 507kts
07-Apr-12 20:00 29.439751 -134.387370 68 37200ft 506kts
07-Apr-12 20:01 29.488632 -134.235656 67 37200ft 505kts
07-Apr-12 20:02 29.536922 -134.084260 68 37201ft 506kts
07-Apr-12 20:03 29.584733 -133.931989 68 37202ft 505kts
07-Apr-12 20:04 29.633611 -133.780095 68 37204ft 506kts
07-Apr-12 20:05 29.680734 -133.627327 68 37203ft 506kts
07-Apr-12 20:06 29.729257 -133.475021 68 37203ft 506kts
07-Apr-12 20:07 29.776054 -133.321780 68 37202ft 506kts
07-Apr-12 20:08 29.824108 -133.169046 68 37203ft 506kts
07-Apr-12 20:09 29.870772 -133.015537 69 37204ft 507kts
07-Apr-12 20:10 29.917822 -132.862093 68 37203ft 507kts
07-Apr-12 20:11 29.964182 -132.712261 69 37203ft 507kts
07-Apr-12 20:12 30.011151 -132.555112 69 37204ft 507kts
07-Apr-12 20:13 30.057328 -132.400890 69 37204ft 507kts
07-Apr-12 20:14 30.120298 -132.196017 68 37204ft 507kts
07-Apr-12 20:15 30.150956 -132.092796 69 37204ft 507kts
07-Apr-12 20:16 30.196214 -131.937917 69 37204ft 507kts
07-Apr-12 20:17 30.243048 -131.783585 69 37203ft 508kts
07-Apr-12 20:18 30.287927 -131.628949 70 37204ft 508kts
07-Apr-12 20:19 30.333039 -131.473725 69 37203ft 508kts
07-Apr-12 20:20 30.364018 -131.370373 69 37203ft 507kts
07-Apr-12 20:20 30.394846 -131.266969 69 37203ft 508kts
07-Apr-12 20:21 30.424053 -131.163445 70 37203ft 508kts
07-Apr-12 20:22 30.468325 -131.007680 69 37204ft 508kts
07-Apr-12 20:23 30.514215 -130.851467 70 37202ft 512kts
07-Apr-12 20:24 30.559498 -130.694511 71 37189ft 512kts
07-Apr-12 20:25 30.603605 -130.537289 71 37192ft 511kts
07-Apr-12 20:26 30.648874 -130.381173 71 37194ft 511kts
07-Apr-12 20:27 30.692337 -130.223795 71 37193ft 511kts
07-Apr-12 20:28 30.736930 -130.066641 71 37193ft 511kts
07-Apr-12 20:29 30.780750 -129.909112 72 37194ft 511kts
07-Apr-12 20:30 30.823582 -129.751060 72 37193ft 511kts
07-Apr-12 20:31 30.867613 -129.593410 71 37194ft 511kts
07-Apr-12 20:32 30.911903 -129.435790 72 37194ft 511kts
07-Apr-12 20:33 30.953910 -129.278199 72 37193ft 509kts
07-Apr-12 20:34 30.997553 -129.120281 72 37194ft 512kts
07-Apr-12 20:35 31.039826 -128.962339 74 37194ft 508kts
07-Apr-12 20:36 31.081287 -128.804512 73 37193ft 509kts
07-Apr-12 20:37 31.124411 -128.646562 73 37193ft 510kts
07-Apr-12 20:38 31.166909 -128.488822 74 37193ft 507kts
07-Apr-12 20:39 31.207765 -128.331077 74 37193ft 509kts
07-Apr-12 20:40 31.249033 -128.172358 74 37193ft 509kts
07-Apr-12 20:41 31.291493 -128.013979 74 37179ft 509kts
07-Apr-12 20:42 31.332765 -127.855424 75 37181ft 508kts
07-Apr-12 20:43 31.373306 -127.696746 74 37183ft 508kts
07-Apr-12 20:44 31.415000 -127.538339 75 37182ft 508kts
07-Apr-12 20:45 31.447982 -127.405606 75 37205ft 508kts
07-Apr-12 20:46 31.495717 -127.220186 74 37191ft 508kts
07-Apr-12 20:47 31.535873 -127.060773 75 37192ft 511kts
07-Apr-12 20:48 31.569869 -126.927351 74 37194ft 511kts
07-Apr-12 20:49 31.615928 -126.739873 75 37194ft 512kts
07-Apr-12 20:50 31.649217 -126.605784 74 37193ft 512kts
07-Apr-12 20:51 31.689801 -126.445066 75 37194ft 512kts
07-Apr-12 20:52 31.728575 -126.283695 75 37193ft 512kts
07-Apr-12 20:53 31.768652 -126.123248 74 37194ft 512kts
07-Apr-12 20:54 31.807065 -125.961613 75 37194ft 512kts
07-Apr-12 20:55 31.845130 -125.799828 75 37192ft 512kts
07-Apr-12 20:56 31.884279 -125.638322 74 37182ft 512kts
07-Apr-12 20:57 31.924052 -125.477022 75 37184ft 512kts
07-Apr-12 20:58 31.961393 -125.315115 75 37183ft 511kts
07-Apr-12 20:59 32.000119 -125.153643 75 37184ft 511kts
07-Apr-12 21:00 32.037558 -124.991731 76 37184ft 511kts
07-Apr-12 21:01 32.075200 -124.829784 75 37184ft 511kts
07-Apr-12 21:02 32.113098 -124.667805 76 37184ft 511kts
07-Apr-12 21:03 32.150025 -124.505497 75 37176ft 511kts
07-Apr-12 21:04 32.187650 -124.340777 76 37140ft 512kts
07-Apr-12 21:05 32.223900 -124.177928 76 37133ft 512kts
07-Apr-12 21:06 32.260369 -124.015290 78 37120ft 511kts
07-Apr-12 21:07 32.293603 -123.851486 79 37121ft 512kts
07-Apr-12 21:08 32.327704 -123.687726 78 37124ft 512kts
07-Apr-12 21:09 32.361594 -123.523874 79 37124ft 511kts
07-Apr-12 21:10 32.393805 -123.359594 79 37122ft 511kts
07-Apr-12 21:11 32.427625 -123.195646 78 37121ft 512kts
07-Apr-12 21:12 32.461134 -123.031427 79 37122ft 512kts
07-Apr-12 21:13 32.496764 -122.867619 76 37122ft 513kts
07-Apr-12 21:14 32.535306 -122.704725 76 37121ft 511kts
07-Apr-12 21:15 32.571963 -122.543621 76 37135ft 506kts
07-Apr-12 21:16 32.609672 -122.382286 76 37148ft 507kts
07-Apr-12 21:17 32.645342 -122.220108 77 37142ft 506kts
07-Apr-12 21:18 32.681760 -122.058495 76 37143ft 506kts
07-Apr-12 21:19 32.715650 -121.896232 78 37144ft 505kts
07-Apr-12 21:20 32.748469 -121.733637 78 37144ft 505kts
07-Apr-12 21:21 32.782373 -121.571241 78 37144ft 505kts
07-Apr-12 21:22 32.814779 -121.408376 78 37144ft 505kts
07-Apr-12 21:23 32.847410 -121.245490 78 37144ft 505kts
07-Apr-12 21:24 32.878735 -121.082645 78 37143ft 504kts
07-Apr-12 21:25 32.910582 -120.920028 78 37144ft 504kts
07-Apr-12 21:26 32.943594 -120.757796 78 37131ft 503kts
07-Apr-12 21:27 32.975211 -120.595351 79 37132ft 503kts
07-Apr-12 21:28 33.006417 -120.432727 78 37133ft 504kts
07-Apr-12 21:29 33.037812 -120.270004 79 37133ft 502kts
07-Apr-12 21:30 33.068131 -120.106504 79 37133ft 502kts
07-Apr-12 21:31 33.092969 -119.971150 79 37131ft 501kts
07-Apr-12 21:32 33.129121 -119.780963 78 37125ft 502kts
07-Apr-12 21:33 33.155252 -119.645824 78 37121ft 502kts
07-Apr-12 21:35 33.213709 -119.319151 79 37126ft 503kts
07-Apr-12 21:36 33.244313 -119.155799 78 37126ft 501kts
07-Apr-12 21:37 33.274233 -118.992850 80 37126ft 501kts
07-Apr-12 21:38 33.302695 -118.829415 79 37128ft 502kts
07-Apr-12 21:39 33.332721 -118.665004 79 37149ft 507kts
07-Apr-12 21:40 33.360904 -118.499681 80 37039ft 504kts
07-Apr-12 21:41 33.368385 -118.332136 102 32990ft 516kts
07-Apr-12 21:42 33.340687 -118.168156 100 30940ft 488kts
07-Apr-12 21:43 33.319096 -118.007816 99 29386ft 483kts
07-Apr-12 21:44 33.298790 -117.850804 99 27880ft 470kts
07-Apr-12 21:45 33.277147 -117.698767 100 26374ft 455kts
07-Apr-12 21:46 33.248625 -117.558806 123 23072ft 420kts
07-Apr-12 21:47 33.170164 -117.459659 135 19051ft 403kts
07-Apr-12 21:48 33.081690 -117.385078 158 15044ft 382kts
07-Apr-12 21:49 32.985575 -117.336772 153 11048ft 365kts
07-Apr-12 21:50 32.895761 -117.285379 156 7150ft 347kts
07-Apr-12 21:51 32.835407 -117.212337 113 5134ft 290kts
07-Apr-12 21:52 32.807585 -117.132807 112 5022ft 229kts
07-Apr-12 21:53 32.782801 -117.069221 121 5007ft 198kts
07-Apr-12 21:54 32.741570 -117.045023 193 4954ft 187kts
07-Apr-12 21:55 32.706182 -117.090008 276 2261ft 189kts
07-Apr-12 21:56 32.721305 -117.139938 292 1293ft 139kts
07-Apr-12 21:57 32.732150 -117.183889 286 31ft 127kts
07-Apr-12 21:58 32.736784 -117.202997 286 29ft 35kts
07-Apr-12 21:59 32.734780 -117.203652 196 29ft 0kts
07-Apr-12 22:00 32.734778 -117.203652 196 29ft 0kts
07-Apr-12 22:01 32.734778 -117.203652 196 29ft 0kts
07-Apr-12 22:02 32.734778 -117.203652 196 29ft 0kts
07-Apr-12 22:03 32.734778 -117.203652 196 29ft 0kts
07-Apr-12 22:04 32.734778 -117.203652 196 29ft 0kts
07-Apr-12 22:05 32.734788 -117.203649 196 29ft 0kts
07-Apr-12 22:06 32.734788 -117.203649 196 29ft 0kts
07-Apr-12 22:07 32.734788 -117.203649 196 29ft 0kts

Navigation Log

Ident Type
1. PHNL Airport
2. BLUSH Fix
3. SESXI Fix
4. ALICA Fix
5. EBBER Fix
6. ELOYI Fix
7. ERROT Fix
8. ETNIC Fix
9. ETECO Fix
10. EDSEL Fix
11. EDTOO Fix
12. ELKEY Fix
13. SXC Navaid
14. HUBRD Fix
15. CARDI Fix
16. TORIE Fix
17. KSAN Airport